VGV511 ULWW-ULPB
Flight info
| Callsign | VGV511 |
|---|---|
| Flight time | 1h 23m |
| Altitude | 24000 |
| Route | ZURRU DCT TIPNA N198 RUROS T785 PEMEM |
| Aircraft | YK40/M-SDFIRWY/H |
Departure
| Time | 2026-04-25 09:29 |
|---|---|
| Airport | Vologda Airport (ULWW) |
Arrival
| Time | 2026-04-25 10:52 |
|---|---|
| Airport | Petrozavodsk Airport (ULPB) |
| Time | Latitude | Longitude | Altitude | Speed | Heading |
|---|---|---|---|---|---|
| 2026-04-25 09:14 | 59.28414 | 39.93716 | 397 ft | 0 kts | 16° |
| 2026-04-25 09:23 | 59.28416 | 39.93718 | 397 ft | 1 kts | 16° |
| 2026-04-25 09:23 | 59.28435 | 39.93750 | 396 ft | 5 kts | 77° |
| 2026-04-25 09:23 | 59.28424 | 39.93862 | 395 ft | 10 kts | 107° |
| 2026-04-25 09:23 | 59.28385 | 39.93935 | 393 ft | 7 kts | 148° |
| 2026-04-25 09:24 | 59.28358 | 39.94049 | 391 ft | 10 kts | 104° |
| 2026-04-25 09:24 | 59.28343 | 39.94150 | 390 ft | 0 kts | 107° |
| 2026-04-25 09:24 | 59.28342 | 39.94156 | 390 ft | 1 kts | 107° |
| 2026-04-25 09:25 | 59.28334 | 39.94209 | 389 ft | 6 kts | 107° |
| 2026-04-25 09:25 | 59.28317 | 39.94323 | 389 ft | 10 kts | 106° |
| 2026-04-25 09:25 | 59.28261 | 39.94440 | 389 ft | 13 kts | 160° |
| 2026-04-25 09:25 | 59.28158 | 39.94497 | 390 ft | 16 kts | 165° |
| 2026-04-25 09:26 | 59.28035 | 39.94565 | 390 ft | 20 kts | 164° |
| 2026-04-25 09:26 | 59.27887 | 39.94647 | 389 ft | 24 kts | 164° |
| 2026-04-25 09:26 | 59.27713 | 39.94743 | 387 ft | 20 kts | 164° |
| 2026-04-25 09:26 | 59.27613 | 39.94799 | 386 ft | 12 kts | 169° |
| 2026-04-25 09:27 | 59.27548 | 39.94796 | 386 ft | 4 kts | 149° |
| 2026-04-25 09:27 | 59.27552 | 39.94833 | 386 ft | 4 kts | 14° |
| 2026-04-25 09:27 | 59.27577 | 39.94825 | 386 ft | 1 kts | 344° |
| 2026-04-25 09:27 | 59.27578 | 39.94824 | 386 ft | 0 kts | 344° |
| 2026-04-25 09:29 | 59.27634 | 39.94793 | 386 ft | 32 kts | 344° |
| 2026-04-25 09:29 | 59.28062 | 39.94555 | 391 ft | 92 kts | 344° |
| 2026-04-25 09:29 | 59.28796 | 39.94144 | 640 ft | 115 kts | 343° |
| 2026-04-25 09:29 | 59.29560 | 39.93720 | 1183 ft | 115 kts | 343° |
| 2026-04-25 09:30 | 59.30320 | 39.93278 | 1694 ft | 116 kts | 341° |
| 2026-04-25 09:30 | 59.31079 | 39.92751 | 2225 ft | 117 kts | 339° |
| 2026-04-25 09:30 | 59.31827 | 39.92215 | 2780 ft | 112 kts | 338° |
| 2026-04-25 09:30 | 59.32522 | 39.91723 | 3200 ft | 106 kts | 338° |
| 2026-04-25 09:31 | 59.33109 | 39.91311 | 3444 ft | 110 kts | 340° |
| 2026-04-25 09:31 | 59.33847 | 39.90793 | 3726 ft | 117 kts | 338° |
| 2026-04-25 09:31 | 59.34679 | 39.90206 | 3874 ft | 138 kts | 338° |
| 2026-04-25 09:31 | 59.35641 | 39.89520 | 4102 ft | 155 kts | 338° |
| 2026-04-25 09:32 | 59.36697 | 39.88764 | 4408 ft | 167 kts | 339° |
| 2026-04-25 09:32 | 59.37815 | 39.87963 | 4789 ft | 174 kts | 339° |
| 2026-04-25 09:32 | 59.38969 | 39.87137 | 5199 ft | 178 kts | 339° |
| 2026-04-25 09:32 | 59.40128 | 39.86312 | 5623 ft | 181 kts | 339° |
| 2026-04-25 09:33 | 59.41316 | 39.85466 | 6045 ft | 183 kts | 338° |
| 2026-04-25 09:33 | 59.42514 | 39.84563 | 6469 ft | 186 kts | 338° |
| 2026-04-25 09:33 | 59.43728 | 39.83675 | 6902 ft | 187 kts | 338° |
| 2026-04-25 09:33 | 59.44954 | 39.82791 | 7321 ft | 190 kts | 338° |
| 2026-04-25 09:34 | 59.46194 | 39.81900 | 7745 ft | 191 kts | 338° |
| 2026-04-25 09:34 | 59.47456 | 39.80992 | 8152 ft | 193 kts | 338° |
| 2026-04-25 09:34 | 59.48716 | 39.80086 | 8560 ft | 194 kts | 338° |
| 2026-04-25 09:34 | 59.49987 | 39.79172 | 8974 ft | 195 kts | 338° |
| 2026-04-25 09:35 | 59.51259 | 39.78261 | 9390 ft | 195 kts | 338° |
| 2026-04-25 09:35 | 59.52538 | 39.77348 | 9806 ft | 196 kts | 338° |
| 2026-04-25 09:35 | 59.53809 | 39.76443 | 10218 ft | 196 kts | 338° |
| 2026-04-25 09:35 | 59.55087 | 39.75532 | 10633 ft | 196 kts | 338° |
| 2026-04-25 09:36 | 59.56344 | 39.74632 | 11040 ft | 195 kts | 338° |
| 2026-04-25 09:36 | 59.57570 | 39.73543 | 11447 ft | 194 kts | 331° |
| 2026-04-25 09:36 | 59.58685 | 39.72073 | 11839 ft | 193 kts | 320° |
| 2026-04-25 09:36 | 59.59699 | 39.70385 | 12181 ft | 194 kts | 321° |
| 2026-04-25 09:37 | 59.60750 | 39.68657 | 12473 ft | 198 kts | 321° |
| 2026-04-25 09:37 | 59.61813 | 39.66920 | 12760 ft | 202 kts | 321° |
| 2026-04-25 09:37 | 59.62906 | 39.65136 | 13066 ft | 204 kts | 321° |
| 2026-04-25 09:37 | 59.63996 | 39.63354 | 13379 ft | 205 kts | 321° |
| 2026-04-25 09:38 | 59.65089 | 39.61565 | 13691 ft | 206 kts | 321° |
| 2026-04-25 09:38 | 59.66185 | 39.59767 | 14010 ft | 206 kts | 321° |
| 2026-04-25 09:38 | 59.67284 | 39.57958 | 14330 ft | 206 kts | 321° |
| 2026-04-25 09:38 | 59.68377 | 39.56161 | 14653 ft | 205 kts | 321° |
| 2026-04-25 09:39 | 59.69469 | 39.54369 | 14972 ft | 205 kts | 321° |
| 2026-04-25 09:39 | 59.70570 | 39.52565 | 15295 ft | 204 kts | 321° |
| 2026-04-25 09:39 | 59.71660 | 39.50781 | 15610 ft | 204 kts | 321° |
| 2026-04-25 09:40 | 59.73823 | 39.47246 | 16225 ft | 203 kts | 321° |
| 2026-04-25 09:40 | 59.74918 | 39.45455 | 16530 ft | 203 kts | 321° |
| 2026-04-25 09:40 | 59.75996 | 39.43694 | 16829 ft | 202 kts | 321° |
| 2026-04-25 09:40 | 59.77085 | 39.41918 | 17132 ft | 202 kts | 321° |
| 2026-04-25 09:41 | 59.78164 | 39.40164 | 17425 ft | 201 kts | 321° |
| 2026-04-25 09:41 | 59.79234 | 39.38423 | 17695 ft | 201 kts | 320° |
| 2026-04-25 09:41 | 59.80183 | 39.36411 | 17992 ft | 200 kts | 308° |
| 2026-04-25 09:41 | 59.80967 | 39.34164 | 18253 ft | 200 kts | 307° |
| 2026-04-25 09:42 | 59.81766 | 39.31899 | 18518 ft | 200 kts | 307° |
| 2026-04-25 09:42 | 59.82576 | 39.29626 | 18788 ft | 200 kts | 307° |
| 2026-04-25 09:42 | 59.83390 | 39.27353 | 19026 ft | 201 kts | 307° |
| 2026-04-25 09:42 | 59.84199 | 39.25092 | 19249 ft | 203 kts | 307° |
| 2026-04-25 09:43 | 59.85022 | 39.22800 | 19473 ft | 204 kts | 307° |
| 2026-04-25 09:43 | 59.85849 | 39.20515 | 19667 ft | 205 kts | 307° |
| 2026-04-25 09:43 | 59.86751 | 39.18329 | 19891 ft | 205 kts | 311° |
| 2026-04-25 09:43 | 59.87688 | 39.16203 | 20101 ft | 206 kts | 311° |
| 2026-04-25 09:44 | 59.88629 | 39.14048 | 20315 ft | 207 kts | 311° |
| 2026-04-25 09:44 | 59.89566 | 39.11895 | 20530 ft | 207 kts | 311° |
| 2026-04-25 09:44 | 59.90505 | 39.09729 | 20750 ft | 207 kts | 311° |
| 2026-04-25 09:44 | 59.91441 | 39.07573 | 20956 ft | 207 kts | 311° |
| 2026-04-25 09:45 | 59.92384 | 39.05407 | 21165 ft | 207 kts | 311° |
| 2026-04-25 09:45 | 59.93310 | 39.03285 | 21369 ft | 206 kts | 311° |
| 2026-04-25 09:45 | 59.94262 | 39.01118 | 21583 ft | 206 kts | 311° |
| 2026-04-25 09:45 | 59.95202 | 38.98985 | 21785 ft | 206 kts | 311° |
| 2026-04-25 09:46 | 59.96143 | 38.96860 | 21984 ft | 205 kts | 311° |
| 2026-04-25 09:46 | 59.97077 | 38.94756 | 22181 ft | 205 kts | 311° |
| 2026-04-25 09:46 | 59.98029 | 38.92617 | 22379 ft | 204 kts | 311° |
| 2026-04-25 09:46 | 59.98957 | 38.90535 | 22566 ft | 204 kts | 311° |
| 2026-04-25 09:47 | 59.99911 | 38.88403 | 22753 ft | 204 kts | 311° |
| 2026-04-25 09:47 | 60.00825 | 38.86289 | 22950 ft | 203 kts | 307° |
| 2026-04-25 09:47 | 60.01677 | 38.84042 | 23130 ft | 202 kts | 307° |
| 2026-04-25 09:47 | 60.02522 | 38.81824 | 23298 ft | 202 kts | 307° |
| 2026-04-25 09:48 | 60.03377 | 38.79599 | 23470 ft | 202 kts | 307° |
| 2026-04-25 09:48 | 60.04236 | 38.77380 | 23638 ft | 202 kts | 307° |
| 2026-04-25 09:48 | 60.05114 | 38.75111 | 23624 ft | 210 kts | 307° |
| 2026-04-25 09:48 | 60.06016 | 38.72782 | 23598 ft | 217 kts | 307° |
| 2026-04-25 09:49 | 60.06950 | 38.70369 | 23586 ft | 223 kts | 307° |
| 2026-04-25 09:49 | 60.07915 | 38.67870 | 23584 ft | 228 kts | 307° |
| 2026-04-25 09:49 | 60.08899 | 38.65319 | 23575 ft | 232 kts | 307° |
| 2026-04-25 09:49 | 60.09886 | 38.62754 | 23577 ft | 236 kts | 307° |
| 2026-04-25 09:50 | 60.10888 | 38.60159 | 23577 ft | 239 kts | 307° |
| 2026-04-25 09:50 | 60.11911 | 38.57513 | 23578 ft | 242 kts | 307° |
| 2026-04-25 09:50 | 60.12948 | 38.54828 | 23577 ft | 244 kts | 307° |
| 2026-04-25 09:50 | 60.13984 | 38.52140 | 23577 ft | 246 kts | 307° |
| 2026-04-25 09:51 | 60.15007 | 38.49486 | 23577 ft | 249 kts | 307° |
| 2026-04-25 09:51 | 60.16057 | 38.46756 | 23580 ft | 249 kts | 307° |
| 2026-04-25 09:51 | 60.17122 | 38.43987 | 23587 ft | 251 kts | 307° |
| 2026-04-25 09:51 | 60.18190 | 38.41209 | 23585 ft | 252 kts | 307° |
| 2026-04-25 09:52 | 60.19253 | 38.38440 | 23591 ft | 253 kts | 307° |
| 2026-04-25 09:52 | 60.20304 | 38.35702 | 23585 ft | 254 kts | 307° |
| 2026-04-25 09:52 | 60.21344 | 38.32980 | 23583 ft | 254 kts | 306° |
| 2026-04-25 09:52 | 60.22422 | 38.30148 | 23589 ft | 255 kts | 306° |
| 2026-04-25 09:53 | 60.23497 | 38.27326 | 23585 ft | 256 kts | 306° |
| 2026-04-25 09:53 | 60.24585 | 38.24446 | 23594 ft | 256 kts | 306° |
| 2026-04-25 09:53 | 60.25560 | 38.21477 | 23593 ft | 257 kts | 301° |
| 2026-04-25 09:53 | 60.26479 | 38.18397 | 23575 ft | 257 kts | 301° |
| 2026-04-25 09:54 | 60.27401 | 38.15335 | 23584 ft | 257 kts | 301° |
| 2026-04-25 09:54 | 60.28338 | 38.12236 | 23590 ft | 258 kts | 301° |
| 2026-04-25 09:54 | 60.29274 | 38.09148 | 23592 ft | 258 kts | 301° |
| 2026-04-25 09:54 | 60.30213 | 38.06064 | 23590 ft | 258 kts | 301° |
| 2026-04-25 09:55 | 60.31157 | 38.02975 | 23585 ft | 258 kts | 301° |
| 2026-04-25 09:55 | 60.32088 | 37.99919 | 23595 ft | 259 kts | 301° |
| 2026-04-25 09:55 | 60.33034 | 37.96807 | 23590 ft | 259 kts | 301° |
| 2026-04-25 09:55 | 60.33967 | 37.93732 | 23592 ft | 259 kts | 301° |
| 2026-04-25 09:56 | 60.34907 | 37.90640 | 23586 ft | 259 kts | 301° |
| 2026-04-25 09:56 | 60.35845 | 37.87557 | 23587 ft | 259 kts | 301° |
| 2026-04-25 09:56 | 60.36795 | 37.84445 | 23593 ft | 259 kts | 301° |
| 2026-04-25 09:56 | 60.37740 | 37.81347 | 23586 ft | 259 kts | 301° |
| 2026-04-25 09:57 | 60.38674 | 37.78274 | 23600 ft | 259 kts | 301° |
| 2026-04-25 09:57 | 60.39625 | 37.75148 | 23593 ft | 259 kts | 301° |
| 2026-04-25 09:57 | 60.40573 | 37.72035 | 23598 ft | 259 kts | 301° |
| 2026-04-25 09:57 | 60.41507 | 37.68967 | 23592 ft | 259 kts | 301° |
| 2026-04-25 09:58 | 60.42469 | 37.65807 | 23588 ft | 259 kts | 301° |
| 2026-04-25 09:58 | 60.43418 | 37.62694 | 23601 ft | 259 kts | 301° |
| 2026-04-25 09:58 | 60.44358 | 37.59614 | 23600 ft | 259 kts | 301° |
| 2026-04-25 09:58 | 60.45306 | 37.56508 | 23590 ft | 259 kts | 301° |
| 2026-04-25 09:59 | 60.46257 | 37.53386 | 23594 ft | 259 kts | 301° |
| 2026-04-25 09:59 | 60.47204 | 37.50275 | 23595 ft | 259 kts | 301° |
| 2026-04-25 09:59 | 60.48140 | 37.47193 | 23599 ft | 259 kts | 301° |
| 2026-04-25 09:59 | 60.49091 | 37.44069 | 23593 ft | 259 kts | 301° |
| 2026-04-25 10:00 | 60.50037 | 37.40959 | 23595 ft | 259 kts | 301° |
| 2026-04-25 10:00 | 60.50985 | 37.37832 | 23593 ft | 259 kts | 301° |
| 2026-04-25 10:00 | 60.51933 | 37.34761 | 23593 ft | 258 kts | 303° |
| 2026-04-25 10:00 | 60.53084 | 37.31976 | 23607 ft | 260 kts | 312° |
| 2026-04-25 10:01 | 60.54451 | 37.29514 | 23563 ft | 262 kts | 314° |
| 2026-04-25 10:01 | 60.55810 | 37.27082 | 23558 ft | 263 kts | 314° |
| 2026-04-25 10:01 | 60.57187 | 37.24585 | 23573 ft | 262 kts | 314° |
| 2026-04-25 10:01 | 60.58531 | 37.22127 | 23579 ft | 262 kts | 314° |
| 2026-04-25 10:02 | 60.59895 | 37.19624 | 23581 ft | 262 kts | 314° |
| 2026-04-25 10:02 | 60.61253 | 37.17126 | 23583 ft | 263 kts | 314° |
| 2026-04-25 10:02 | 60.62588 | 37.14666 | 23582 ft | 263 kts | 314° |
| 2026-04-25 10:02 | 60.63943 | 37.12167 | 23583 ft | 263 kts | 314° |
| 2026-04-25 10:03 | 60.65309 | 37.09650 | 23577 ft | 263 kts | 314° |
| 2026-04-25 10:03 | 60.66655 | 37.07179 | 23578 ft | 263 kts | 314° |
| 2026-04-25 10:03 | 60.68023 | 37.04679 | 23589 ft | 263 kts | 314° |
| 2026-04-25 10:03 | 60.69385 | 37.02196 | 23594 ft | 263 kts | 314° |
| 2026-04-25 10:04 | 60.70741 | 36.99724 | 23600 ft | 263 kts | 314° |
| 2026-04-25 10:04 | 60.72104 | 36.97234 | 23604 ft | 263 kts | 314° |
| 2026-04-25 10:04 | 60.73412 | 36.94694 | 23622 ft | 261 kts | 310° |
| 2026-04-25 10:04 | 60.74565 | 36.91851 | 23598 ft | 261 kts | 307° |
| 2026-04-25 10:05 | 60.75713 | 36.88940 | 23593 ft | 256 kts | 307° |
| 2026-04-25 10:05 | 60.76817 | 36.86176 | 23597 ft | 248 kts | 307° |
| 2026-04-25 10:05 | 60.77889 | 36.83519 | 23598 ft | 236 kts | 307° |
| 2026-04-25 10:05 | 60.78902 | 36.81023 | 23597 ft | 221 kts | 307° |
| 2026-04-25 10:06 | 60.79848 | 36.78710 | 23588 ft | 208 kts | 307° |
| 2026-04-25 10:06 | 60.80761 | 36.76498 | 23578 ft | 196 kts | 307° |
| 2026-04-25 10:06 | 60.81607 | 36.74451 | 23586 ft | 185 kts | 307° |
| 2026-04-25 10:06 | 60.82427 | 36.72482 | 23580 ft | 176 kts | 307° |
| 2026-04-25 10:07 | 60.83201 | 36.70635 | 23579 ft | 168 kts | 307° |
| 2026-04-25 10:07 | 60.83969 | 36.68799 | 23406 ft | 169 kts | 307° |
| 2026-04-25 10:07 | 60.84732 | 36.66973 | 23221 ft | 170 kts | 307° |
| 2026-04-25 10:07 | 60.85509 | 36.65113 | 23032 ft | 171 kts | 307° |
| 2026-04-25 10:08 | 60.86278 | 36.63264 | 22853 ft | 171 kts | 307° |
| 2026-04-25 10:08 | 60.87040 | 36.61417 | 22673 ft | 172 kts | 307° |
| 2026-04-25 10:08 | 60.87812 | 36.59537 | 22490 ft | 173 kts | 307° |
| 2026-04-25 10:08 | 60.88587 | 36.57641 | 22320 ft | 173 kts | 307° |
| 2026-04-25 10:09 | 60.89354 | 36.55757 | 22129 ft | 175 kts | 307° |
| 2026-04-25 10:09 | 60.90139 | 36.53822 | 21938 ft | 176 kts | 307° |
| 2026-04-25 10:09 | 60.90920 | 36.51886 | 21738 ft | 177 kts | 307° |
| 2026-04-25 10:09 | 60.91701 | 36.49937 | 21543 ft | 178 kts | 307° |
| 2026-04-25 10:10 | 60.92479 | 36.47983 | 21376 ft | 178 kts | 307° |
| 2026-04-25 10:10 | 60.93267 | 36.45991 | 21198 ft | 179 kts | 307° |
| 2026-04-25 10:10 | 60.94046 | 36.44019 | 21006 ft | 179 kts | 307° |
| 2026-04-25 10:10 | 60.94819 | 36.42051 | 20832 ft | 179 kts | 307° |
| 2026-04-25 10:11 | 60.95600 | 36.40060 | 20661 ft | 180 kts | 307° |
| 2026-04-25 10:11 | 60.96393 | 36.38027 | 20454 ft | 181 kts | 307° |
| 2026-04-25 10:11 | 60.97174 | 36.36020 | 20252 ft | 182 kts | 307° |
| 2026-04-25 10:11 | 60.97962 | 36.33981 | 20060 ft | 183 kts | 306° |
| 2026-04-25 10:12 | 60.98749 | 36.31929 | 19880 ft | 183 kts | 306° |
| 2026-04-25 10:12 | 60.99538 | 36.29858 | 19702 ft | 183 kts | 306° |
| 2026-04-25 10:12 | 61.01100 | 36.25730 | 19341 ft | 184 kts | 306° |
| 2026-04-25 10:13 | 61.01868 | 36.23632 | 19162 ft | 183 kts | 303° |
| 2026-04-25 10:13 | 61.02423 | 36.21273 | 18994 ft | 183 kts | 290° |
| 2026-04-25 10:13 | 61.02776 | 36.18742 | 18780 ft | 185 kts | 290° |
| 2026-04-25 10:13 | 61.03144 | 36.16223 | 18579 ft | 186 kts | 289° |
| 2026-04-25 10:14 | 61.03531 | 36.13663 | 18368 ft | 187 kts | 290° |
| 2026-04-25 10:14 | 61.03924 | 36.11103 | 18169 ft | 188 kts | 290° |
| 2026-04-25 10:14 | 61.04321 | 36.08538 | 17975 ft | 188 kts | 289° |
| 2026-04-25 10:14 | 61.04718 | 36.05976 | 17772 ft | 188 kts | 289° |
| 2026-04-25 10:15 | 61.05117 | 36.03401 | 17571 ft | 189 kts | 290° |
| 2026-04-25 10:15 | 61.05513 | 36.00837 | 17387 ft | 189 kts | 289° |
| 2026-04-25 10:15 | 61.05912 | 35.98249 | 17183 ft | 189 kts | 290° |
| 2026-04-25 10:15 | 61.06309 | 35.95681 | 17003 ft | 189 kts | 289° |
| 2026-04-25 10:16 | 61.06708 | 35.93116 | 16806 ft | 189 kts | 289° |
| 2026-04-25 10:16 | 61.07108 | 35.90536 | 16627 ft | 189 kts | 289° |
| 2026-04-25 10:16 | 61.07507 | 35.87960 | 16428 ft | 189 kts | 290° |
| 2026-04-25 10:16 | 61.07945 | 35.85404 | 16241 ft | 188 kts | 293° |
| 2026-04-25 10:17 | 61.08347 | 35.83247 | 16081 ft | 187 kts | 293° |
| 2026-04-25 10:17 | 61.08821 | 35.80772 | 15901 ft | 187 kts | 293° |
| 2026-04-25 10:17 | 61.09251 | 35.78221 | 15719 ft | 187 kts | 290° |
| 2026-04-25 10:17 | 61.09659 | 35.75670 | 15529 ft | 187 kts | 290° |
| 2026-04-25 10:18 | 61.10074 | 35.73145 | 15339 ft | 187 kts | 290° |
| 2026-04-25 10:18 | 61.10520 | 35.70629 | 15154 ft | 187 kts | 291° |
| 2026-04-25 10:18 | 61.10973 | 35.68127 | 14972 ft | 187 kts | 291° |
| 2026-04-25 10:18 | 61.11425 | 35.65587 | 14796 ft | 187 kts | 291° |
| 2026-04-25 10:19 | 61.11868 | 35.63081 | 14622 ft | 187 kts | 291° |
| 2026-04-25 10:19 | 61.12317 | 35.60541 | 14454 ft | 187 kts | 291° |
| 2026-04-25 10:19 | 61.12734 | 35.58172 | 14275 ft | 188 kts | 291° |
| 2026-04-25 10:19 | 61.13181 | 35.55632 | 14081 ft | 189 kts | 291° |
| 2026-04-25 10:20 | 61.13634 | 35.53065 | 13891 ft | 189 kts | 291° |
| 2026-04-25 10:20 | 61.14081 | 35.50539 | 13696 ft | 190 kts | 291° |
| 2026-04-25 10:20 | 61.14534 | 35.47971 | 13516 ft | 190 kts | 291° |
| 2026-04-25 10:20 | 61.14985 | 35.45417 | 13335 ft | 190 kts | 291° |
| 2026-04-25 10:21 | 61.15443 | 35.42842 | 13142 ft | 190 kts | 291° |
| 2026-04-25 10:21 | 61.15904 | 35.40281 | 12957 ft | 190 kts | 291° |
| 2026-04-25 10:21 | 61.16369 | 35.37736 | 12777 ft | 190 kts | 291° |
| 2026-04-25 10:21 | 61.16835 | 35.35200 | 12603 ft | 189 kts | 291° |
| 2026-04-25 10:22 | 61.17302 | 35.32653 | 12436 ft | 189 kts | 290° |
| 2026-04-25 10:22 | 61.17767 | 35.30118 | 12270 ft | 189 kts | 290° |
| 2026-04-25 10:22 | 61.18232 | 35.27587 | 12112 ft | 189 kts | 290° |
| 2026-04-25 10:22 | 61.18699 | 35.25044 | 11914 ft | 190 kts | 290° |
| 2026-04-25 10:23 | 61.19168 | 35.22487 | 11718 ft | 191 kts | 290° |
| 2026-04-25 10:23 | 61.19637 | 35.19932 | 11517 ft | 192 kts | 290° |
| 2026-04-25 10:23 | 61.20113 | 35.17351 | 11319 ft | 192 kts | 290° |
| 2026-04-25 10:23 | 61.20593 | 35.14751 | 11153 ft | 192 kts | 290° |
| 2026-04-25 10:24 | 61.21067 | 35.12194 | 10989 ft | 192 kts | 290° |
| 2026-04-25 10:24 | 61.21549 | 35.09594 | 10790 ft | 193 kts | 290° |
| 2026-04-25 10:24 | 61.22025 | 35.07011 | 10606 ft | 192 kts | 289° |
| 2026-04-25 10:24 | 61.22422 | 35.04374 | 10431 ft | 192 kts | 286° |
| 2026-04-25 10:25 | 61.22810 | 35.01728 | 10251 ft | 192 kts | 286° |
| 2026-04-25 10:25 | 61.23205 | 34.99096 | 10069 ft | 193 kts | 286° |
| 2026-04-25 10:25 | 61.23613 | 34.96413 | 9892 ft | 193 kts | 286° |
| 2026-04-25 10:25 | 61.24015 | 34.93798 | 9702 ft | 193 kts | 286° |
| 2026-04-25 10:26 | 61.24431 | 34.91128 | 9519 ft | 193 kts | 286° |
| 2026-04-25 10:26 | 61.24842 | 34.88508 | 9366 ft | 193 kts | 286° |
| 2026-04-25 10:26 | 61.25259 | 34.85871 | 9188 ft | 193 kts | 286° |
| 2026-04-25 10:26 | 61.25680 | 34.83224 | 9021 ft | 193 kts | 286° |
| 2026-04-25 10:27 | 61.26100 | 34.80575 | 8869 ft | 193 kts | 286° |
| 2026-04-25 10:27 | 61.26522 | 34.77947 | 8688 ft | 193 kts | 287° |
| 2026-04-25 10:27 | 61.27188 | 34.75528 | 8538 ft | 195 kts | 305° |
| 2026-04-25 10:27 | 61.28106 | 34.73424 | 8370 ft | 197 kts | 313° |
| 2026-04-25 10:28 | 61.29156 | 34.71585 | 8221 ft | 199 kts | 321° |
| 2026-04-25 10:28 | 61.30362 | 34.70201 | 8077 ft | 201 kts | 329° |
| 2026-04-25 10:28 | 61.31622 | 34.68911 | 7896 ft | 202 kts | 329° |
| 2026-04-25 10:28 | 61.32875 | 34.67585 | 7719 ft | 203 kts | 329° |
| 2026-04-25 10:29 | 61.34120 | 34.66252 | 7542 ft | 203 kts | 329° |
| 2026-04-25 10:29 | 61.35371 | 34.64902 | 7368 ft | 204 kts | 329° |
| 2026-04-25 10:29 | 61.36627 | 34.63535 | 7213 ft | 204 kts | 328° |
| 2026-04-25 10:29 | 61.37893 | 34.62175 | 7020 ft | 204 kts | 330° |
| 2026-04-25 10:30 | 61.39197 | 34.60989 | 6870 ft | 205 kts | 333° |
| 2026-04-25 10:30 | 61.40499 | 34.59823 | 6711 ft | 205 kts | 333° |
| 2026-04-25 10:30 | 61.41804 | 34.58642 | 6537 ft | 206 kts | 333° |
| 2026-04-25 10:30 | 61.43113 | 34.57452 | 6386 ft | 206 kts | 333° |
| 2026-04-25 10:31 | 61.44426 | 34.56262 | 6231 ft | 205 kts | 333° |
| 2026-04-25 10:31 | 61.45736 | 34.55073 | 6066 ft | 205 kts | 333° |
| 2026-04-25 10:31 | 61.47026 | 34.53899 | 5897 ft | 205 kts | 332° |
| 2026-04-25 10:31 | 61.48334 | 34.52711 | 5712 ft | 204 kts | 333° |
| 2026-04-25 10:32 | 61.49638 | 34.51534 | 5566 ft | 204 kts | 333° |
| 2026-04-25 10:32 | 61.50930 | 34.50364 | 5399 ft | 204 kts | 333° |
| 2026-04-25 10:32 | 61.52228 | 34.49176 | 5247 ft | 203 kts | 333° |
| 2026-04-25 10:32 | 61.53518 | 34.47993 | 5098 ft | 203 kts | 333° |
| 2026-04-25 10:33 | 61.54798 | 34.46813 | 4953 ft | 203 kts | 333° |
| 2026-04-25 10:33 | 61.56086 | 34.45621 | 4804 ft | 203 kts | 333° |
| 2026-04-25 10:33 | 61.57381 | 34.44415 | 4649 ft | 202 kts | 333° |
| 2026-04-25 10:33 | 61.58662 | 34.43219 | 4495 ft | 202 kts | 333° |
| 2026-04-25 10:34 | 61.59944 | 34.42018 | 4341 ft | 202 kts | 333° |
| 2026-04-25 10:34 | 61.61209 | 34.40829 | 4192 ft | 202 kts | 333° |
| 2026-04-25 10:34 | 61.62495 | 34.39621 | 4039 ft | 202 kts | 333° |
| 2026-04-25 10:34 | 61.63779 | 34.38511 | 3890 ft | 201 kts | 335° |
| 2026-04-25 10:35 | 61.65077 | 34.37391 | 3740 ft | 201 kts | 334° |
| 2026-04-25 10:35 | 61.66357 | 34.36272 | 3593 ft | 201 kts | 335° |
| 2026-04-25 10:35 | 61.67644 | 34.35138 | 3441 ft | 201 kts | 335° |
| 2026-04-25 10:35 | 61.68938 | 34.33991 | 3286 ft | 200 kts | 334° |
| 2026-04-25 10:36 | 61.70207 | 34.32861 | 3165 ft | 198 kts | 334° |
| 2026-04-25 10:36 | 61.71459 | 34.31749 | 3203 ft | 190 kts | 334° |
| 2026-04-25 10:36 | 61.72654 | 34.30686 | 3240 ft | 188 kts | 334° |
| 2026-04-25 10:36 | 61.73857 | 34.29613 | 3255 ft | 188 kts | 334° |
| 2026-04-25 10:37 | 61.75053 | 34.28550 | 3248 ft | 188 kts | 334° |
| 2026-04-25 10:37 | 61.76265 | 34.27474 | 3243 ft | 189 kts | 334° |
| 2026-04-25 10:37 | 61.77472 | 34.26405 | 3240 ft | 189 kts | 334° |
| 2026-04-25 10:37 | 61.78676 | 34.25335 | 3237 ft | 189 kts | 334° |
| 2026-04-25 10:38 | 61.79888 | 34.24253 | 3239 ft | 189 kts | 334° |
| 2026-04-25 10:38 | 61.80574 | 34.23638 | 3238 ft | 190 kts | 334° |
| 2026-04-25 10:38 | 61.81789 | 34.22546 | 3237 ft | 190 kts | 334° |
| 2026-04-25 10:38 | 61.83016 | 34.21441 | 3236 ft | 190 kts | 334° |
| 2026-04-25 10:39 | 61.84220 | 34.20356 | 3241 ft | 190 kts | 334° |
| 2026-04-25 10:39 | 61.85432 | 34.19268 | 3239 ft | 188 kts | 334° |
| 2026-04-25 10:39 | 61.86619 | 34.18212 | 3241 ft | 184 kts | 334° |
| 2026-04-25 10:39 | 61.87783 | 34.17176 | 3245 ft | 180 kts | 334° |
| 2026-04-25 10:40 | 61.88931 | 34.16157 | 3248 ft | 177 kts | 334° |
| 2026-04-25 10:40 | 61.90065 | 34.15229 | 3249 ft | 176 kts | 343° |
| 2026-04-25 10:40 | 61.91289 | 34.15084 | 3271 ft | 176 kts | 2° |
| 2026-04-25 10:40 | 61.92520 | 34.15291 | 3211 ft | 180 kts | 1° |
| 2026-04-25 10:41 | 61.93787 | 34.15462 | 3120 ft | 185 kts | 1° |
| 2026-04-25 10:41 | 61.95056 | 34.15612 | 2982 ft | 185 kts | 1° |
| 2026-04-25 10:41 | 61.96325 | 34.15761 | 2804 ft | 180 kts | 1° |
| 2026-04-25 10:41 | 61.97554 | 34.15905 | 2601 ft | 175 kts | 1° |
| 2026-04-25 10:42 | 61.98768 | 34.16034 | 2387 ft | 173 kts | 1° |
| 2026-04-25 10:42 | 61.99968 | 34.16168 | 2202 ft | 173 kts | 1° |
| 2026-04-25 10:42 | 62.01169 | 34.16305 | 2021 ft | 173 kts | 1° |
| 2026-04-25 10:42 | 62.02333 | 34.16444 | 2005 ft | 163 kts | 1° |
| 2026-04-25 10:43 | 62.03420 | 34.16588 | 2046 ft | 152 kts | 2° |
| 2026-04-25 10:43 | 62.04469 | 34.16714 | 2081 ft | 155 kts | 0° |
| 2026-04-25 10:43 | 62.05603 | 34.16853 | 2196 ft | 172 kts | 0° |
| 2026-04-25 10:43 | 62.06862 | 34.16987 | 2194 ft | 186 kts | 0° |
| 2026-04-25 10:44 | 62.08151 | 34.17157 | 2149 ft | 188 kts | 6° |
| 2026-04-25 10:44 | 62.09388 | 34.18017 | 2111 ft | 190 kts | 30° |
| 2026-04-25 10:44 | 62.10374 | 34.19871 | 2079 ft | 187 kts | 56° |
| 2026-04-25 10:44 | 62.10896 | 34.22288 | 2064 ft | 175 kts | 81° |
| 2026-04-25 10:45 | 62.10885 | 34.24722 | 2079 ft | 160 kts | 109° |
| 2026-04-25 10:45 | 62.10509 | 34.26873 | 2067 ft | 154 kts | 114° |
| 2026-04-25 10:45 | 62.10101 | 34.29039 | 2086 ft | 156 kts | 120° |
| 2026-04-25 10:45 | 62.09560 | 34.31033 | 2140 ft | 156 kts | 128° |
| 2026-04-25 10:46 | 62.08884 | 34.32789 | 2130 ft | 161 kts | 138° |
| 2026-04-25 10:46 | 62.07898 | 34.33923 | 2107 ft | 162 kts | 173° |
| 2026-04-25 10:46 | 62.06802 | 34.33549 | 2105 ft | 163 kts | 209° |
| 2026-04-25 10:46 | 62.05854 | 34.32161 | 2107 ft | 164 kts | 213° |
| 2026-04-25 10:47 | 62.04908 | 34.30843 | 2100 ft | 161 kts | 211° |
| 2026-04-25 10:47 | 62.03986 | 34.29586 | 2083 ft | 157 kts | 211° |
| 2026-04-25 10:47 | 62.03000 | 34.28610 | 1975 ft | 157 kts | 197° |
| 2026-04-25 10:47 | 62.01947 | 34.27960 | 1796 ft | 162 kts | 198° |
| 2026-04-25 10:48 | 62.00890 | 34.27194 | 1779 ft | 155 kts | 202° |
| 2026-04-25 10:48 | 61.99942 | 34.26350 | 1849 ft | 137 kts | 206° |
| 2026-04-25 10:48 | 61.99216 | 34.25539 | 2032 ft | 100 kts | 206° |
| 2026-04-25 10:48 | 61.98600 | 34.24863 | 1959 ft | 101 kts | 207° |
| 2026-04-25 10:49 | 61.97948 | 34.24228 | 1907 ft | 103 kts | 206° |
| 2026-04-25 10:49 | 61.97291 | 34.23614 | 1879 ft | 103 kts | 204° |
| 2026-04-25 10:49 | 61.96640 | 34.22966 | 1809 ft | 107 kts | 205° |
| 2026-04-25 10:49 | 61.95950 | 34.22319 | 1670 ft | 108 kts | 203° |
| 2026-04-25 10:50 | 61.95264 | 34.21734 | 1526 ft | 105 kts | 201° |
| 2026-04-25 10:50 | 61.94575 | 34.21136 | 1296 ft | 108 kts | 201° |
| 2026-04-25 10:50 | 61.93898 | 34.20440 | 1116 ft | 108 kts | 204° |
| 2026-04-25 10:50 | 61.93223 | 34.19854 | 988 ft | 103 kts | 204° |
| 2026-04-25 10:51 | 61.92580 | 34.19185 | 851 ft | 102 kts | 207° |
| 2026-04-25 10:51 | 61.91937 | 34.18596 | 710 ft | 102 kts | 202° |
| 2026-04-25 10:51 | 61.91288 | 34.17976 | 582 ft | 103 kts | 205° |
| 2026-04-25 10:51 | 61.90631 | 34.17379 | 454 ft | 103 kts | 203° |
| 2026-04-25 10:52 | 61.89964 | 34.16800 | 307 ft | 105 kts | 201° |
| 2026-04-25 10:52 | 61.89307 | 34.16186 | 179 ft | 104 kts | 201° |
| 2026-04-25 10:52 | 61.88709 | 34.15653 | 157 ft | 80 kts | 203° |
| 2026-04-25 10:52 | 61.88311 | 34.15299 | 157 ft | 43 kts | 203° |
| 2026-04-25 10:53 | 61.88130 | 34.15125 | 157 ft | 19 kts | 205° |
| 2026-04-25 10:53 | 61.88013 | 34.15017 | 157 ft | 19 kts | 202° |
| 2026-04-25 10:53 | 61.87905 | 34.15006 | 157 ft | 15 kts | 133° |
| 2026-04-25 10:53 | 61.87878 | 34.15117 | 157 ft | 5 kts | 113° |
| 2026-04-25 10:54 | 61.87861 | 34.15203 | 157 ft | 6 kts | 113° |
| 2026-04-25 10:54 | 61.87848 | 34.15271 | 157 ft | 3 kts | 113° |
| 2026-04-25 10:54 | 61.87837 | 34.15325 | 157 ft | 6 kts | 111° |
| 2026-04-25 10:54 | 61.87815 | 34.15396 | 157 ft | 7 kts | 131° |
| 2026-04-25 10:55 | 61.87801 | 34.15442 | 157 ft | 0 kts | 113° |
| 2026-04-25 10:55 | 61.87794 | 34.15482 | 157 ft | 3 kts | 112° |
| 2026-04-25 10:55 | 61.87792 | 34.15492 | 156 ft | 0 kts | 112° |
| 2026-04-25 10:55 | 61.87791 | 34.15493 | 157 ft | 0 kts | 112° |